Time;durP1;ratioP1;P1;durP2;ratioP2;P2;SDS_P1;SDS_P2;PMS_P1;PMS_P2;Temp;Humidity;BMP_temperature;BMP_pressure;BME280_temperature;BME280_humidity;BME280_pressure;Samples;Min_cycle;Max_cycle;Signal;HPM_P1;HPM_P2
2023/06/25 00:01:33;;;;;;;11.17;10.67;;;21.00;99.90;;;;;;4838276;29;20467;-82
2023/06/25 00:04:02;;;;;;;11.20;10.70;;;20.90;99.90;;;;;;4838683;29;20471;-80
2023/06/25 00:06:30;;;;;;;12.43;11.80;;;20.90;99.90;;;;;;4842766;29;20499;-80
2023/06/25 00:08:58;;;;;;;12.40;11.80;;;20.90;99.90;;;;;;4837826;29;20466;-80
2023/06/25 00:11:28;;;;;;;12.03;11.40;;;20.80;99.90;;;;;;4839083;29;20811;-81
2023/06/25 00:13:56;;;;;;;11.80;11.20;;;20.80;99.90;;;;;;4838458;29;20489;-80
2023/06/25 00:16:25;;;;;;;12.23;11.60;;;20.80;99.90;;;;;;4842424;29;20469;-80
2023/06/25 00:18:53;;;;;;;12.20;11.60;;;20.80;99.90;;;;;;4839663;29;20480;-80
2023/06/25 00:21:22;;;;;;;11.83;11.33;;;20.70;99.90;;;;;;4840150;29;20474;-75
2023/06/25 00:23:51;;;;;;;12.27;11.67;;;20.70;99.90;;;;;;4838726;29;21028;-79
2023/06/25 00:26:19;;;;;;;12.33;11.50;;;20.60;99.90;;;;;;4838826;29;20976;-80
2023/06/25 00:28:50;;;;;;;12.27;11.67;;;20.60;99.90;;;;;;4837770;29;20491;-79
2023/06/25 00:31:18;;;;;;;12.20;11.60;;;20.60;99.90;;;;;;4838474;29;20456;-79
2023/06/25 00:33:49;;;;;;;12.30;11.70;;;20.60;99.90;;;;;;4839111;29;20461;-79
2023/06/25 00:36:17;;;;;;;12.60;12.00;;;20.50;99.90;;;;;;4840690;29;20501;-82
2023/06/25 00:38:47;;;;;;;12.07;11.50;;;20.50;99.90;;;;;;4839328;29;20500;-79
2023/06/25 00:41:16;;;;;;;12.70;12.00;;;20.40;99.90;;;;;;4840589;29;20943;-81
2023/06/25 00:43:44;;;;;;;12.37;11.67;;;20.40;99.90;;;;;;4838455;29;20985;-77
2023/06/25 00:46:16;;;;;;;11.70;11.10;;;20.40;99.90;;;;;;4833749;29;21081;-77
2023/06/25 00:48:47;;;;;;;12.20;11.60;;;20.40;99.90;;;;;;4839287;29;20460;-78
2023/06/25 00:51:16;;;;;;;11.87;11.13;;;20.40;99.90;;;;;;4831691;29;20490;-79
2023/06/25 00:53:45;;;;;;;12.10;11.50;;;20.30;99.90;;;;;;4840505;29;20987;-81
2023/06/25 00:56:13;;;;;;;11.90;11.33;;;20.20;99.90;;;;;;4837967;29;20457;-80
2023/06/25 00:58:41;;;;;;;11.53;11.03;;;20.20;99.90;;;;;;4835793;29;20490;-80
2023/06/25 01:01:17;;;;;;;12.20;11.40;;;20.20;99.90;;;;;;4838978;29;20468;-80
2023/06/25 01:03:54;;;;;;;12.30;11.70;;;20.10;99.90;;;;;;4834996;29;20513;-77
2023/06/25 01:06:33;;;;;;;11.93;11.33;;;20.10;99.90;;;;;;4835458;29;20463;-80
2023/06/25 01:09:02;;;;;;;12.03;11.43;;;20.10;99.90;;;;;;4837586;29;20747;-80
2023/06/25 01:11:30;;;;;;;12.40;11.70;;;20.10;99.90;;;;;;4842132;29;20475;-79
2023/06/25 01:13:59;;;;;;;12.20;11.60;;;20.10;99.90;;;;;;4842463;29;20492;-80
2023/06/25 01:16:28;;;;;;;12.90;11.90;;;20.10;99.90;;;;;;4842435;29;20462;-81
2023/06/25 01:18:58;;;;;;;11.57;10.97;;;20.10;99.90;;;;;;4840644;29;20491;-82
2023/06/25 01:21:32;;;;;;;12.03;11.37;;;20.10;99.90;;;;;;4837505;29;20971;-81
2023/06/25 01:24:02;;;;;;;11.80;11.20;;;20.00;99.90;;;;;;4841171;29;20481;-81
2023/06/25 01:26:30;;;;;;;12.00;11.40;;;20.00;99.90;;;;;;4845879;29;20470;-80
2023/06/25 01:28:58;;;;;;;12.03;11.43;;;19.90;99.90;;;;;;4841278;29;20542;-78
2023/06/25 01:31:30;;;;;;;11.80;11.30;;;19.90;99.90;;;;;;4838849;29;20460;-80
2023/06/25 01:33:59;;;;;;;11.83;11.30;;;19.80;99.90;;;;;;4840891;29;20536;-80
2023/06/25 01:36:27;;;;;;;11.67;10.97;;;19.80;99.90;;;;;;4840552;29;20467;-80
2023/06/25 01:38:55;;;;;;;12.53;12.00;;;19.80;99.90;;;;;;4841803;29;20493;-80
2023/06/25 01:41:25;;;;;;;13.10;12.40;;;19.80;99.90;;;;;;4846226;29;20559;-79
2023/06/25 01:43:53;;;;;;;12.13;11.53;;;19.80;99.90;;;;;;4841013;29;20901;-81
2023/06/25 01:46:21;;;;;;;12.27;11.50;;;19.80;99.90;;;;;;4839547;29;20481;-82
2023/06/25 01:48:49;;;;;;;12.60;11.90;;;19.80;99.90;;;;;;4844409;29;20456;-81
2023/06/25 01:51:17;;;;;;;12.20;11.60;;;19.70;99.90;;;;;;4852234;29;20471;-80
2023/06/25 01:53:45;;;;;;;12.17;11.57;;;19.70;99.90;;;;;;4857757;29;20707;-79
2023/06/25 01:56:13;;;;;;;11.93;11.43;;;19.70;99.90;;;;;;4838034;29;20457;-80
2023/06/25 01:58:43;;;;;;;12.23;11.73;;;19.60;99.90;;;;;;4838849;29;21114;-80
2023/06/25 02:01:11;;;;;;;12.70;12.10;;;19.60;99.90;;;;;;4840234;29;20464;-79
2023/06/25 02:03:39;;;;;;;11.97;11.47;;;19.60;99.90;;;;;;4844194;29;20501;-78
2023/06/25 02:06:07;;;;;;;13.17;12.47;;;19.60;99.90;;;;;;4840292;29;20636;-78
2023/06/25 02:08:35;;;;;;;12.10;11.50;;;19.60;99.90;;;;;;4840108;29;20470;-78
2023/06/25 02:11:03;;;;;;;12.30;11.80;;;19.50;99.90;;;;;;4840347;29;20551;-80
2023/06/25 02:13:31;;;;;;;12.47;11.97;;;19.50;99.90;;;;;;4840276;29;20458;-80
2023/06/25 02:16:01;;;;;;;11.97;11.43;;;19.50;99.90;;;;;;4841128;29;20825;-79
2023/06/25 02:18:29;;;;;;;12.43;11.80;;;19.50;99.90;;;;;;4842870;29;21079;-81
2023/06/25 02:20:57;;;;;;;12.70;12.20;;;19.50;99.90;;;;;;4841492;29;20590;-80
2023/06/25 02:23:25;;;;;;;12.80;12.20;;;19.40;99.90;;;;;;4842496;29;20480;-79
2023/06/25 02:25:53;;;;;;;13.93;13.13;;;19.40;99.90;;;;;;4842466;29;21019;-79
2023/06/25 02:28:21;;;;;;;13.17;12.53;;;19.40;99.90;;;;;;4840117;29;20465;-80
2023/06/25 02:30:50;;;;;;;12.70;12.10;;;19.40;99.90;;;;;;4837723;29;20462;-78
2023/06/25 02:33:19;;;;;;;13.33;12.63;;;19.40;99.90;;;;;;4840671;29;20465;-80
2023/06/25 02:35:48;;;;;;;12.70;12.07;;;19.30;99.90;;;;;;4841294;29;20485;-80
2023/06/25 02:38:16;;;;;;;12.00;11.47;;;19.30;99.90;;;;;;4840899;29;20551;-80
2023/06/25 02:40:44;;;;;;;13.43;12.73;;;19.30;99.90;;;;;;4838393;29;21248;-77
2023/06/25 02:43:12;;;;;;;13.03;12.43;;;19.30;99.90;;;;;;4839919;29;20471;-76
2023/06/25 02:45:40;;;;;;;12.97;12.20;;;19.30;99.90;;;;;;4840778;29;20484;-79
2023/06/25 02:48:08;;;;;;;12.93;12.33;;;19.30;99.90;;;;;;4841371;29;20479;-80
2023/06/25 02:50:38;;;;;;;13.00;12.40;;;19.30;99.90;;;;;;4837742;29;20909;-79
2023/06/25 02:53:06;;;;;;;13.70;13.00;;;19.20;99.90;;;;;;4839764;29;20472;-81
2023/06/25 02:55:34;;;;;;;13.80;13.10;;;19.20;99.90;;;;;;4837766;29;20497;-80
2023/06/25 02:58:02;;;;;;;12.93;12.33;;;19.10;99.90;;;;;;4840683;29;20579;-78
2023/06/25 03:00:30;;;;;;;13.10;12.40;;;19.10;99.90;;;;;;4838713;29;20622;-78
2023/06/25 03:02:58;;;;;;;14.30;13.30;;;19.10;99.90;;;;;;4839841;29;20465;-80
2023/06/25 03:05:27;;;;;;;12.57;11.97;;;19.00;99.90;;;;;;4838809;29;20909;-79
2023/06/25 03:07:58;;;;;;;12.67;12.07;;;19.00;99.90;;;;;;4838721;29;20461;-78
2023/06/25 03:10:29;;;;;;;13.27;12.57;;;19.00;99.90;;;;;;4837911;29;20462;-81
2023/06/25 03:12:58;;;;;;;12.70;12.00;;;19.00;99.90;;;;;;4840359;29;20468;-79
2023/06/25 03:15:26;;;;;;;12.10;11.50;;;19.00;99.90;;;;;;4839761;29;20480;-79
2023/06/25 03:17:54;;;;;;;12.87;12.27;;;19.00;99.90;;;;;;4841686;29;20464;-81
2023/06/25 03:20:22;;;;;;;13.50;12.60;;;19.00;99.90;;;;;;4842581;29;21031;-81
2023/06/25 03:22:50;;;;;;;12.30;11.70;;;18.90;99.90;;;;;;4839388;29;20458;-81
2023/06/25 03:25:20;;;;;;;12.93;12.23;;;18.80;99.90;;;;;;4837933;29;20477;-81
2023/06/25 03:27:48;;;;;;;13.03;12.33;;;18.80;99.90;;;;;;4841390;29;20458;-81
2023/06/25 03:30:16;;;;;;;14.00;13.30;;;18.80;99.90;;;;;;4839591;29;20465;-81
2023/06/25 03:32:44;;;;;;;12.40;11.80;;;18.80;99.90;;;;;;4838788;29;21081;-80
2023/06/25 03:35:13;;;;;;;13.07;12.37;;;18.80;99.90;;;;;;4836839;29;20481;-77
2023/06/25 03:37:42;;;;;;;12.10;11.50;;;18.80;99.90;;;;;;4840536;29;20526;-79
2023/06/25 03:40:11;;;;;;;12.73;12.03;;;18.80;99.90;;;;;;4839536;29;20592;-78
2023/06/25 03:42:40;;;;;;;12.20;11.60;;;18.80;99.90;;;;;;4840334;29;20468;-78
2023/06/25 03:45:09;;;;;;;12.50;11.90;;;18.80;99.90;;;;;;4839110;29;21146;-80
2023/06/25 03:47:37;;;;;;;12.67;12.07;;;18.80;99.90;;;;;;4839377;29;20487;-80
2023/06/25 03:50:06;;;;;;;13.10;12.50;;;18.80;99.90;;;;;;4835630;29;20591;-80
2023/06/25 03:52:34;;;;;;;13.60;12.70;;;18.80;99.90;;;;;;4841044;29;20849;-77
2023/06/25 03:55:03;;;;;;;12.77;12.17;;;18.80;99.90;;;;;;4843198;29;20835;-79
2023/06/25 03:57:31;;;;;;;13.47;12.67;;;18.70;99.90;;;;;;4842665;29;20452;-79
2023/06/25 04:00:01;;;;;;;13.07;12.33;;;18.70;99.90;;;;;;4840698;29;20563;-78
2023/06/25 04:02:29;;;;;;;13.00;12.40;;;18.70;99.90;;;;;;4834523;29;20468;-80
2023/06/25 04:04:57;;;;;;;11.87;11.37;;;18.60;99.90;;;;;;4841185;29;20515;-76
2023/06/25 04:07:25;;;;;;;13.03;12.23;;;18.70;99.90;;;;;;4836030;29;20466;-81
2023/06/25 04:09:53;;;;;;;12.77;12.07;;;18.70;99.90;;;;;;4836132;29;20462;-80
2023/06/25 04:12:21;;;;;;;13.60;12.90;;;18.70;99.90;;;;;;4843226;29;20469;-79
2023/06/25 04:14:49;;;;;;;13.33;12.63;;;18.70;99.90;;;;;;4840491;29;20520;-79
2023/06/25 04:17:19;;;;;;;13.50;12.80;;;18.70;99.90;;;;;;4841052;29;20465;-80
2023/06/25 04:19:47;;;;;;;13.17;12.47;;;18.70;99.90;;;;;;4838162;29;20455;-78
2023/06/25 04:22:15;;;;;;;13.00;12.30;;;18.80;99.90;;;;;;4839230;29;20465;-79
2023/06/25 04:24:43;;;;;;;13.23;12.40;;;18.80;99.90;;;;;;4836025;29;20761;-77
2023/06/25 04:27:11;;;;;;;13.07;12.37;;;18.80;99.90;;;;;;4835477;29;20481;-80
2023/06/25 04:29:39;;;;;;;13.90;13.17;;;18.80;99.90;;;;;;4841214;29;21019;-78
2023/06/25 04:32:08;;;;;;;14.73;13.20;;;18.80;99.90;;;;;;4838279;29;20453;-77
2023/06/25 04:34:38;;;;;;;12.77;12.13;;;18.90;99.90;;;;;;4836165;29;20476;-78
2023/06/25 04:37:07;;;;;;;12.60;12.00;;;18.90;99.90;;;;;;4837801;29;20458;-79
2023/06/25 04:39:35;;;;;;;12.87;12.17;;;18.90;99.90;;;;;;4839295;29;20497;-78
2023/06/25 04:42:03;;;;;;;13.00;12.30;;;18.90;99.90;;;;;;4835662;29;20975;-78
2023/06/25 04:44:31;;;;;;;13.97;13.17;;;18.90;99.90;;;;;;4838171;29;20566;-78
2023/06/25 04:46:59;;;;;;;12.97;12.27;;;18.90;99.90;;;;;;4840133;29;20580;-79
2023/06/25 04:49:27;;;;;;;13.70;13.00;;;18.90;99.90;;;;;;4842081;29;20656;-81
2023/06/25 04:51:57;;;;;;;13.20;12.47;;;18.90;99.90;;;;;;4842939;29;21023;-79
2023/06/25 04:54:25;;;;;;;13.90;13.20;;;19.00;99.90;;;;;;4844057;29;20493;-79
2023/06/25 04:56:53;;;;;;;13.17;12.37;;;19.00;99.90;;;;;;4840477;29;20866;-79
2023/06/25 04:59:21;;;;;;;13.23;12.43;;;19.00;99.90;;;;;;4840639;29;20468;-78
2023/06/25 05:01:49;;;;;;;13.27;12.60;;;19.10;99.90;;;;;;4841571;29;20493;-79
2023/06/25 05:04:17;;;;;;;13.60;12.90;;;19.10;99.90;;;;;;4842487;29;20921;-79
2023/06/25 05:06:46;;;;;;;14.20;13.50;;;19.20;99.90;;;;;;4841971;29;20473;-79
2023/06/25 05:09:15;;;;;;;14.30;13.60;;;19.20;99.90;;;;;;4842486;29;21032;-79
2023/06/25 05:11:44;;;;;;;13.93;13.23;;;19.20;99.90;;;;;;4842924;29;20497;-78
2023/06/25 05:14:12;;;;;;;13.77;13.10;;;19.30;99.90;;;;;;4838434;29;20483;-76
2023/06/25 05:16:40;;;;;;;13.60;12.90;;;19.30;99.90;;;;;;4839913;29;20502;-79
2023/06/25 05:19:08;;;;;;;13.57;12.87;;;19.40;99.90;;;;;;4839705;29;20457;-78
2023/06/25 05:21:36;;;;;;;13.50;12.90;;;19.40;99.90;;;;;;4844382;29;20548;-79
2023/06/25 05:24:05;;;;;;;13.30;12.60;;;19.40;99.90;;;;;;4842122;29;20562;-77
2023/06/25 05:26:35;;;;;;;13.47;12.63;;;19.40;99.90;;;;;;4843533;29;20461;-79
2023/06/25 05:29:03;;;;;;;13.30;12.60;;;19.40;99.90;;;;;;4841142;29;21029;-79
2023/06/25 05:31:31;;;;;;;13.93;13.13;;;19.50;99.90;;;;;;4837135;29;20472;-78
2023/06/25 05:33:59;;;;;;;14.37;13.57;;;19.60;99.90;;;;;;4842334;29;20484;-78
2023/06/25 05:36:28;;;;;;;13.17;12.57;;;19.60;99.90;;;;;;4842692;29;21433;-80
2023/06/25 05:38:57;;;;;;;13.53;12.80;;;19.60;99.90;;;;;;4839965;29;20457;-80
2023/06/25 05:41:25;;;;;;;14.30;13.50;;;19.70;99.90;;;;;;4840115;29;20495;-81
2023/06/25 05:43:54;;;;;;;14.27;13.60;;;19.80;99.90;;;;;;4838514;29;21779;-79
2023/06/25 05:46:22;;;;;;;13.17;12.57;;;19.80;99.90;;;;;;4842950;29;20480;-78
2023/06/25 05:48:50;;;;;;;13.03;12.33;;;19.90;99.90;;;;;;4839638;29;20465;-78
2023/06/25 05:51:19;;;;;;;13.40;12.70;;;20.00;99.90;;;;;;4842824;29;20461;-80
2023/06/25 05:53:50;;;;;;;13.40;12.70;;;20.10;99.90;;;;;;4841022;29;20529;-77
2023/06/25 05:56:18;;;;;;;13.60;12.90;;;20.10;99.90;;;;;;4839331;29;20553;-77
2023/06/25 05:58:47;;;;;;;13.13;12.43;;;20.20;99.90;;;;;;4840580;29;20453;-79
2023/06/25 06:01:16;;;;;;;13.43;12.83;;;20.20;99.90;;;;;;4834985;29;20619;-78
2023/06/25 06:03:44;;;;;;;12.57;11.97;;;20.20;99.90;;;;;;4841680;29;20488;-78
2023/06/25 06:06:13;;;;;;;12.97;12.50;;;20.30;99.90;;;;;;4841216;29;20556;-78
2023/06/25 06:08:41;;;;;;;13.93;13.23;;;20.40;99.90;;;;;;4842082;29;20473;-79
2023/06/25 06:11:10;;;;;;;12.90;12.30;;;20.30;99.90;;;;;;4841467;29;20485;-79
2023/06/25 06:13:38;;;;;;;12.87;12.27;;;20.40;99.90;;;;;;4843793;29;20470;-79
2023/06/25 06:16:06;;;;;;;12.57;11.97;;;20.50;99.90;;;;;;4839936;29;20488;-76
2023/06/25 06:18:36;;;;;;;13.87;13.20;;;20.40;99.90;;;;;;4832581;29;20998;-77
2023/06/25 06:21:04;;;;;;;12.37;11.80;;;20.50;99.90;;;;;;4844072;29;20550;-80
2023/06/25 06:23:32;;;;;;;13.20;12.60;;;20.50;99.90;;;;;;4842749;29;20966;-78
2023/06/25 06:26:00;;;;;;;13.53;12.73;;;20.40;99.90;;;;;;4841759;29;20581;-79
2023/06/25 06:28:28;;;;;;;12.67;12.17;;;20.50;99.90;;;;;;4842446;29;20538;-77
2023/06/25 06:30:57;;;;;;;12.90;12.40;;;20.60;99.90;;;;;;4836574;29;20469;-76
2023/06/25 06:33:25;;;;;;;12.77;12.10;;;20.70;99.90;;;;;;4839928;29;20461;-80
2023/06/25 06:35:54;;;;;;;12.67;12.07;;;20.80;99.90;;;;;;4843697;29;21019;-78
2023/06/25 06:38:22;;;;;;;12.23;11.63;;;20.80;99.90;;;;;;4842608;29;20460;-78
2023/06/25 06:40:50;;;;;;;12.40;11.80;;;20.80;99.90;;;;;;4840502;29;20464;-81
2023/06/25 06:43:18;;;;;;;11.47;11.07;;;20.90;99.90;;;;;;4837960;29;20467;-80
2023/06/25 06:45:47;;;;;;;12.10;11.60;;;21.00;99.90;;;;;;4835635;29;20611;-77
2023/06/25 06:48:15;;;;;;;11.67;11.17;;;21.00;99.90;;;;;;4832750;29;20500;-77
2023/06/25 06:50:43;;;;;;;12.67;12.00;;;21.00;99.90;;;;;;4837780;29;20536;-79
2023/06/25 06:53:12;;;;;;;12.33;11.50;;;21.10;99.90;;;;;;4838947;29;20473;-79
2023/06/25 06:55:40;;;;;;;12.60;12.10;;;21.10;99.90;;;;;;4838510;29;20481;-79
2023/06/25 06:58:08;;;;;;;13.10;12.50;;;21.10;99.90;;;;;;4840221;29;20844;-77
2023/06/25 07:00:36;;;;;;;12.50;11.90;;;21.30;99.90;;;;;;4843682;29;21054;-77
2023/06/25 07:03:04;;;;;;;12.20;11.60;;;21.30;99.90;;;;;;4842112;29;20612;-77
2023/06/25 07:05:33;;;;;;;12.27;11.70;;;21.30;99.90;;;;;;4843473;29;20483;-78
2023/06/25 07:08:01;;;;;;;12.43;11.83;;;21.40;99.90;;;;;;4835871;29;20898;-75
2023/06/25 07:10:31;;;;;;;12.70;12.10;;;21.40;99.90;;;;;;4835581;29;20912;-78
2023/06/25 07:12:59;;;;;;;11.77;11.27;;;21.50;99.90;;;;;;4840318;29;20467;-77
2023/06/25 07:15:27;;;;;;;12.97;12.17;;;21.50;99.90;;;;;;4843049;29;20540;-79
2023/06/25 07:17:56;;;;;;;12.27;11.67;;;21.60;99.90;;;;;;4843653;29;20472;-80
2023/06/25 07:20:24;;;;;;;12.50;11.90;;;21.60;99.90;;;;;;4839381;29;20474;-79
2023/06/25 07:22:52;;;;;;;11.63;11.13;;;21.70;99.90;;;;;;4833945;29;20564;-78
2023/06/25 07:25:20;;;;;;;10.80;10.40;;;21.80;99.90;;;;;;4840039;29;20503;-79
2023/06/25 07:27:50;;;;;;;12.10;11.50;;;21.80;99.90;;;;;;4839989;29;20467;-78
2023/06/25 07:30:18;;;;;;;11.20;10.80;;;21.90;99.90;;;;;;4838280;29;20581;-79
2023/06/25 07:32:46;;;;;;;11.30;10.80;;;21.90;99.90;;;;;;4842395;29;20472;-80
2023/06/25 07:35:14;;;;;;;12.27;11.67;;;22.10;99.90;;;;;;4838825;29;21200;-78
2023/06/25 07:37:42;;;;;;;11.37;10.87;;;22.10;99.90;;;;;;4836037;29;20570;-78
2023/06/25 07:40:11;;;;;;;11.20;10.70;;;22.10;99.90;;;;;;4834674;29;20464;-80
2023/06/25 07:42:39;;;;;;;10.60;10.20;;;22.20;99.90;;;;;;4844950;29;20491;-74
2023/06/25 07:45:10;;;;;;;11.00;10.50;;;22.20;99.90;;;;;;4833964;29;20510;-77
2023/06/25 07:47:38;;;;;;;12.70;11.43;;;22.30;99.90;;;;;;4821314;29;20473;-76
2023/06/25 07:50:08;;;;;;;12.03;11.50;;;22.30;99.90;;;;;;4835055;29;20528;-78
2023/06/25 07:52:36;;;;;;;17.83;11.03;;;22.30;99.90;;;;;;4826970;29;20898;-81
2023/06/25 07:55:04;;;;;;;11.03;10.63;;;22.40;99.90;;;;;;4837483;29;20480;-80
2023/06/25 07:57:33;;;;;;;11.17;10.50;;;22.40;99.90;;;;;;4842218;29;20552;-80
2023/06/25 08:00:01;;;;;;;10.93;10.53;;;22.40;99.90;;;;;;4841556;29;20475;-80
2023/06/25 08:02:31;;;;;;;10.67;10.27;;;22.50;99.90;;;;;;4843358;29;20477;-83
2023/06/25 08:05:00;;;;;;;12.23;11.63;;;22.60;99.90;;;;;;4929513;23;20506;-80
2023/06/25 08:07:48;;;;;;;11.57;10.97;;;22.70;99.90;;;;;;4877005;29;20806;-80
2023/06/25 08:10:59;;;;;;;11.40;10.70;;;22.70;99.90;;;;;;4883253;29;20545;-81
2023/06/25 08:13:27;;;;;;;11.00;10.50;;;22.70;99.90;;;;;;4879207;29;21171;-83
2023/06/25 08:15:56;;;;;;;11.57;10.97;;;22.80;99.90;;;;;;4864300;29;20495;-82
2023/06/25 08:18:26;;;;;;;11.53;11.03;;;22.80;99.90;;;;;;4860108;29;20475;-80
2023/06/25 08:20:54;;;;;;;10.50;10.10;;;22.80;99.90;;;;;;4858210;29;20485;-81
2023/06/25 08:23:23;;;;;;;11.40;11.00;;;22.90;99.90;;;;;;4859520;29;20511;-80
2023/06/25 08:25:51;;;;;;;12.03;11.43;;;22.90;99.90;;;;;;4859638;29;20486;-80
2023/06/25 08:28:20;;;;;;;11.93;11.33;;;23.00;99.90;;;;;;4860546;29;20471;-82
2023/06/25 08:30:49;;;;;;;11.70;10.73;;;23.10;99.90;;;;;;4858019;29;20552;-81
2023/06/25 08:33:17;;;;;;;12.13;11.40;;;23.10;99.90;;;;;;4861429;29;20832;-81
2023/06/25 08:35:47;;;;;;;11.00;10.50;;;23.10;99.90;;;;;;4859647;29;20488;-82
2023/06/25 08:38:18;;;;;;;10.70;10.20;;;23.10;99.90;;;;;;4859881;29;20503;-82
2023/06/25 08:40:47;;;;;;;10.73;10.23;;;23.10;99.90;;;;;;4864992;29;20459;-82
2023/06/25 08:43:16;;;;;;;10.80;10.20;;;23.20;99.90;;;;;;4856555;29;20483;-80
2023/06/25 08:45:44;;;;;;;10.57;10.07;;;23.20;99.90;;;;;;4859016;29;20495;-80
2023/06/25 08:48:14;;;;;;;11.67;11.07;;;23.30;99.90;;;;;;4857305;29;20758;-80
2023/06/25 08:50:44;;;;;;;11.93;11.33;;;23.30;99.90;;;;;;4855336;29;20461;-83
2023/06/25 08:53:13;;;;;;;11.87;11.27;;;23.40;99.90;;;;;;4852629;29;20467;-82
2023/06/25 08:55:42;;;;;;;10.77;10.20;;;23.40;99.90;;;;;;4853621;29;21038;-80
2023/06/25 08:58:10;;;;;;;10.90;10.50;;;23.40;99.90;;;;;;4855057;29;20460;-82
2023/06/25 09:00:38;;;;;;;11.30;10.80;;;23.50;99.90;;;;;;4851717;29;20546;-81
2023/06/25 09:03:07;;;;;;;11.40;10.90;;;23.50;99.90;;;;;;4850932;29;21023;-80
2023/06/25 09:05:38;;;;;;;11.53;10.83;;;23.50;99.90;;;;;;4854445;29;20490;-81
2023/06/25 09:08:16;;;;;;;11.60;11.00;;;23.60;99.90;;;;;;4850210;29;21013;-76
2023/06/25 09:10:50;;;;;;;11.17;10.20;;;23.60;99.90;;;;;;4853317;29;20483;-78
2023/06/25 09:13:23;;;;;;;11.67;11.13;;;23.70;99.90;;;;;;4844727;29;20470;-78
2023/06/25 09:15:53;;;;;;;11.20;10.70;;;23.60;99.90;;;;;;4850289;29;20499;-79
2023/06/25 09:18:22;;;;;;;12.23;11.63;;;23.70;99.90;;;;;;4854380;29;20465;-82
2023/06/25 09:20:50;;;;;;;11.27;10.67;;;23.70;99.90;;;;;;4848938;29;20529;-79
2023/06/25 09:23:25;;;;;;;11.03;10.60;;;23.70;99.90;;;;;;4852184;29;20832;-79
2023/06/25 09:25:53;;;;;;;11.70;11.20;;;23.80;99.90;;;;;;4853916;29;20568;-81
2023/06/25 09:28:22;;;;;;;11.73;11.23;;;23.80;99.90;;;;;;4851746;29;20474;-79
2023/06/25 09:30:55;;;;;;;11.57;10.97;;;23.80;99.90;;;;;;4852066;29;20580;-82
2023/06/25 09:33:31;;;;;;;10.73;10.23;;;23.90;99.90;;;;;;4860798;29;20455;-83
2023/06/25 09:36:01;;;;;;;11.83;11.23;;;24.00;99.90;;;;;;4864735;29;20479;-80
2023/06/25 09:38:36;;;;;;;11.40;10.80;;;24.00;99.90;;;;;;4861729;29;21661;-81
2023/06/25 09:41:04;;;;;;;11.20;10.60;;;24.00;99.90;;;;;;4857909;29;20494;-78
2023/06/25 09:43:33;;;;;;;10.87;10.23;;;24.10;99.90;;;;;;4860122;29;20810;-81
2023/06/25 09:46:03;;;;;;;9.83;9.43;;;24.10;99.90;;;;;;4860476;29;20831;-82
2023/06/25 09:48:32;;;;;;;11.30;10.60;;;24.20;99.90;;;;;;4859249;29;21039;-80
2023/06/25 09:51:05;;;;;;;11.30;10.37;;;24.30;99.90;;;;;;4858566;29;20460;-83
2023/06/25 09:53:40;;;;;;;10.87;10.27;;;24.40;99.90;;;;;;4861578;29;20482;-81
2023/06/25 09:56:09;;;;;;;11.07;10.47;;;24.40;99.90;;;;;;4856623;29;20491;-80
2023/06/25 09:58:38;;;;;;;11.47;10.80;;;24.40;99.90;;;;;;4851549;29;20984;-79
2023/06/25 10:01:07;;;;;;;11.50;10.90;;;24.40;99.90;;;;;;4851639;29;20560;-80
2023/06/25 10:03:36;;;;;;;10.13;9.60;;;24.40;99.90;;;;;;4853259;29;20610;-81
2023/06/25 10:06:05;;;;;;;9.80;9.30;;;24.40;99.90;;;;;;4853347;29;20475;-80
2023/06/25 10:08:33;;;;;;;11.20;10.40;;;24.50;99.90;;;;;;4845618;29;20901;-79
2023/06/25 10:11:06;;;;;;;10.60;10.00;;;24.50;99.90;;;;;;4844669;29;20475;-81
2023/06/25 10:13:40;;;;;;;10.17;9.57;;;24.60;99.90;;;;;;4848857;29;20467;-80
2023/06/25 10:16:08;;;;;;;9.87;9.27;;;24.80;99.90;;;;;;4841980;29;20476;-81
2023/06/25 10:18:42;;;;;;;10.53;9.93;;;24.80;99.90;;;;;;4849853;29;20524;-81
2023/06/25 10:21:19;;;;;;;10.03;9.43;;;24.80;99.90;;;;;;4834924;29;20932;-81
2023/06/25 10:23:56;;;;;;;12.27;11.60;;;24.80;99.90;;;;;;4848923;29;20483;-79
2023/06/25 10:26:30;;;;;;;11.00;10.40;;;24.80;99.90;;;;;;4861557;29;20476;-80
2023/06/25 10:29:01;;;;;;;10.80;10.20;;;24.90;99.90;;;;;;4867243;29;20500;-81
2023/06/25 10:31:39;;;;;;;10.70;10.10;;;24.90;99.90;;;;;;4861266;29;20469;-81
2023/06/25 10:34:10;;;;;;;11.93;11.23;;;24.90;99.90;;;;;;4857648;29;20729;-79
2023/06/25 10:39:38;;;;;;;15.07;13.47;;;25.00;99.90;;;;;;4858959;29;20523;-85
2023/06/25 10:42:23;;;;;;;12.30;11.43;;;24.90;99.90;;;;;;4852528;29;20468;-87
2023/06/25 10:44:57;;;;;;;12.90;11.10;;;25.00;99.90;;;;;;4856474;29;20533;-81
2023/06/25 10:47:54;;;;;;;13.47;12.47;;;25.10;99.90;;;;;;4863214;29;20519;-84
2023/06/25 10:50:22;;;;;;;12.70;11.83;;;25.10;99.90;;;;;;4860770;29;20469;-85
2023/06/25 10:52:51;;;;;;;13.43;12.53;;;25.10;99.90;;;;;;4851285;29;20693;-86
2023/06/25 10:55:20;;;;;;;11.70;11.10;;;25.10;99.90;;;;;;4852334;29;20480;-82
2023/06/25 10:57:53;;;;;;;10.90;10.40;;;25.10;99.90;;;;;;4840849;29;20788;-83
2023/06/25 11:00:23;;;;;;;12.13;11.13;;;25.10;99.90;;;;;;4843728;29;20483;-85
2023/06/25 11:02:52;;;;;;;11.43;10.63;;;25.20;99.90;;;;;;4850694;29;20525;-86
2023/06/25 11:05:22;;;;;;;11.70;10.90;;;25.20;99.90;;;;;;4847435;29;20497;-88
2023/06/25 11:07:55;;;;;;;12.13;11.30;;;25.20;99.90;;;;;;4838429;29;21006;-87
2023/06/25 11:10:24;;;;;;;12.40;11.60;;;25.20;99.90;;;;;;4841262;29;20484;-88
2023/06/25 11:12:54;;;;;;;11.70;10.70;;;25.20;99.90;;;;;;4844173;29;22048;-86
2023/06/25 11:15:23;;;;;;;11.20;10.40;;;25.20;99.90;;;;;;4839529;29;20498;-84
2023/06/25 11:17:52;;;;;;;11.63;10.83;;;25.20;99.90;;;;;;4836291;29;20477;-84
2023/06/25 11:20:23;;;;;;;10.90;10.30;;;25.40;99.90;;;;;;4837950;29;20476;-83
2023/06/25 11:22:51;;;;;;;10.77;10.07;;;25.40;99.90;;;;;;4842734;29;20483;-85
2023/06/25 11:25:20;;;;;;;12.40;11.30;;;25.30;99.90;;;;;;4843548;29;20868;-84
2023/06/25 11:27:49;;;;;;;11.60;10.90;;;25.20;99.90;;;;;;4840766;29;20484;-82
2023/06/25 11:30:28;;;;;;;10.83;9.93;;;25.40;99.90;;;;;;4842961;29;20453;-80
2023/06/25 11:33:08;;;;;;;11.77;10.97;;;25.50;99.90;;;;;;4843200;29;20491;-81
2023/06/25 11:35:37;;;;;;;10.10;9.53;;;25.50;99.90;;;;;;4849519;29;20476;-82
2023/06/25 11:38:06;;;;;;;11.03;10.43;;;25.50;99.90;;;;;;4851408;29;20473;-82
2023/06/25 11:40:36;;;;;;;10.20;9.60;;;25.60;99.90;;;;;;4856164;29;20460;-81
2023/06/25 11:43:04;;;;;;;12.50;11.63;;;25.50;99.90;;;;;;4842349;29;20915;-85
2023/06/25 11:45:42;;;;;;;12.07;11.47;;;25.60;99.90;;;;;;4846725;29;20528;-82
2023/06/25 11:48:14;;;;;;;12.27;11.47;;;25.50;99.90;;;;;;4852377;29;20462;-82
2023/06/25 11:50:43;;;;;;;12.00;11.27;;;25.50;99.90;;;;;;4855437;29;20460;-83
2023/06/25 11:53:12;;;;;;;11.73;11.10;;;25.60;99.90;;;;;;4868546;29;20476;-82
2023/06/25 11:55:40;;;;;;;12.30;11.67;;;25.60;99.90;;;;;;4865906;29;20472;-83
2023/06/25 11:58:09;;;;;;;12.47;11.57;;;25.50;99.90;;;;;;4854070;29;20461;-83
2023/06/25 12:00:38;;;;;;;11.57;10.87;;;25.60;99.90;;;;;;4857739;29;20822;-82
2023/06/25 12:03:11;;;;;;;10.57;9.87;;;25.60;99.90;;;;;;4864657;29;20471;-83
2023/06/25 12:05:39;;;;;;;10.37;9.70;;;25.70;99.90;;;;;;4860600;29;21013;-81
2023/06/25 12:08:08;;;;;;;11.03;10.23;;;25.80;99.90;;;;;;4849167;29;20468;-83
2023/06/25 12:10:36;;;;;;;11.20;10.40;;;25.80;99.90;;;;;;4858105;29;20472;-81
2023/06/25 12:13:04;;;;;;;10.73;10.10;;;25.80;99.90;;;;;;4853732;29;20883;-83
2023/06/25 12:15:33;;;;;;;10.50;9.80;;;25.70;99.90;;;;;;4852791;29;20580;-84
2023/06/25 12:18:01;;;;;;;10.00;9.40;;;25.80;99.90;;;;;;4857763;29;20472;-83
2023/06/25 12:20:31;;;;;;;10.63;9.87;;;25.80;99.90;;;;;;4858984;29;20459;-83
2023/06/25 12:22:59;;;;;;;11.30;10.50;;;25.90;99.90;;;;;;4855961;29;20475;-82
2023/06/25 12:25:29;;;;;;;11.23;10.53;;;25.90;99.90;;;;;;4858784;29;20502;-80
2023/06/25 12:27:57;;;;;;;11.93;10.97;;;25.90;99.90;;;;;;4850810;29;20838;-83
2023/06/25 12:30:25;;;;;;;10.50;9.80;;;25.90;99.90;;;;;;4858270;29;20990;-83
2023/06/25 12:32:54;;;;;;;10.67;9.97;;;25.80;99.90;;;;;;4860108;29;20473;-84
2023/06/25 12:35:24;;;;;;;10.90;10.17;;;25.80;99.90;;;;;;4856056;29;20485;-84
2023/06/25 12:37:54;;;;;;;9.80;9.10;;;25.80;99.90;;;;;;4858104;29;20460;-83
2023/06/25 12:40:22;;;;;;;9.93;9.23;;;26.00;99.90;;;;;;4844496;29;20568;-81
2023/06/25 12:42:50;;;;;;;10.40;9.80;;;25.90;99.90;;;;;;4846086;29;21169;-83